Embden, North Dakota
Current Conditions -  °F | °C
As of 7:53 AM on Friday 24 Oct 2014 (Local Time) from KFAR Reporting Station
Clear Clear  
Wind Chill: 40°   Ceiling: Unl
Heat Index: 45°   Visibility: 10mi
Dew Point: 40°   Wind: 10mph
Humidity: 82%   Direction: 170°S
Pressure: 29.78"   Gusts: NA
Location:  46.8763°N, 97.4084°W
Report Text: KFAR 241253Z 17009KT 10SM CLR 07/04 A2978 RMK AO2 SLP089 T00720044 $
Loading
Personal Weather Stations






























Interactive Weather Map
Tropical Storm Tracking
New forecast layout! Learn more

10-Day Weather Forecast

Advertisements
Track Severe Weather on mobile